Terminal Aerodrome Forecast
Issued by NWS

Home | Current Version | Previous Version | Text Only | Print | Product List | Glossary On
Versions: 1 2 3 4 5 6 7 8 9 10 11 12 13
656
FTUS45 KABQ 061742
TAFAEG
TAF
KAEG 061742Z 0618/0718 18020G30KT P6SM FEW100
     FM062000 19026G36KT P6SM FEW100
     FM070230 19011KT P6SM FEW100
     FM070600 25010KT P6SM SKC
     FM071500 23015KT P6SM BKN090=

USA.gov is the U.S. government's official web portal to all federal, state and local government web resources and services.